If you wish to contribute or participate in the discussions about articles you are invited to join SKYbrary as a registered user

 Actions

Vannes-Meucon Airport

From SKYbrary Wiki

LFRV
Airport
ICAO: LFRV – IATA: VNE
Summary
Name Vannes-Meucon Airport
Region Europe
Territory France FR.gif
Location , Bretagne
Serving Vannes
Elevation 135.941 m
446 ft
446 ft135.941 m
Type medium airport
Coordinates 47° 43' 23.89" N, 2° 43' 6.82" W
Runways
Designator Length Width Surface ROPS
4/22 1530 m5,019.685 ft
45 m147.638 ft
ASP /
8/26 1025 m3,362.861 ft
60 m196.85 ft
GRS /


METAR
Observation LFRV 171430Z AUTO 22008KT 190V270 9999 FEW037/// BKN082/// ///CB 14/12 Q1008
Station Vannes-Meucon
Date/Time 17 October 2019 14:30:00
Wind direction 220°
Wind speed 08 kts
Lowest cloud amount few clouds
Temperature 14°C
Dew point 12°C
Humidity 87%
QNH 1008 hPa
Weather condition n/a